地図

経路データ

SID SEASON NUMBER BASIN SUBBASIN NAME ISO_TIME NATURE LAT LON WMO_WIND WMO_PRES WMO_AGENCY TRACK_TYPE DIST2LAND LANDFALL IFLAG USA_AGENCY USA_ATCF_ID USA_LAT USA_LON USA_RECORD USA_STATUS USA_WIND USA_PRES USA_SSHS USA_R34_NE USA_R34_SE USA_R34_SW USA_R34_NW USA_R50_NE USA_R50_SE USA_R50_SW USA_R50_NW USA_R64_NE USA_R64_SE USA_R64_SW USA_R64_NW USA_POCI USA_ROCI USA_RMW USA_EYE TOKYO_LAT TOKYO_LON TOKYO_GRADE TOKYO_WIND TOKYO_PRES TOKYO_R50_DIR TOKYO_R50_LONG TOKYO_R50_SHORT TOKYO_R30_DIR TOKYO_R30_LONG TOKYO_R30_SHORT TOKYO_LAND CMA_LAT CMA_LON CMA_CAT CMA_WIND CMA_PRES HKO_LAT HKO_LON HKO_CAT HKO_WIND HKO_PRES NEWDELHI_LAT NEWDELHI_LON NEWDELHI_GRADE NEWDELHI_WIND NEWDELHI_PRES NEWDELHI_CI NEWDELHI_DP NEWDELHI_POCI REUNION_LAT REUNION_LON REUNION_TYPE REUNION_WIND REUNION_PRES REUNION_TNUM REUNION_CI REUNION_RMW REUNION_R34_NE REUNION_R34_SE REUNION_R34_SW REUNION_R34_NW REUNION_R50_NE REUNION_R50_SE REUNION_R50_SW REUNION_R50_NW REUNION_R64_NE REUNION_R64_SE REUNION_R64_SW REUNION_R64_NW BOM_LAT BOM_LON BOM_TYPE BOM_WIND BOM_PRES BOM_TNUM BOM_CI BOM_RMW BOM_R34_NE BOM_R34_SE BOM_R34_SW BOM_R34_NW BOM_R50_NE BOM_R50_SE BOM_R50_SW BOM_R50_NW BOM_R64_NE BOM_R64_SE BOM_R64_SW BOM_R64_NW BOM_ROCI BOM_POCI BOM_EYE BOM_POS_METHOD BOM_PRES_METHOD NADI_LAT NADI_LON NADI_CAT NADI_WIND NADI_PRES WELLINGTON_LAT WELLINGTON_LON WELLINGTON_WIND WELLINGTON_PRES DS824_LAT DS824_LON DS824_STAGE DS824_WIND DS824_PRES TD9636_LAT TD9636_LON TD9636_STAGE TD9636_WIND TD9636_PRES TD9635_LAT TD9635_LON TD9635_WIND TD9635_PRES TD9635_ROCI NEUMANN_LAT NEUMANN_LON NEUMANN_CLASS NEUMANN_WIND NEUMANN_PRES MLC_LAT MLC_LON MLC_CLASS MLC_WIND MLC_PRES USA_GUST BOM_GUST BOM_GUST_PER REUNION_GUST REUNION_GUST_PER USA_SEAHGT USA_SEARAD_NE USA_SEARAD_SE USA_SEARAD_SW USA_SEARAD_NW STORM_SPEED STORM_DIR
1925105N07142 1925 17 WP MM NOT_NAMED 1925-04-14 22:00:00 NR 7.20000 142.200 main 1080 1076 __________O___ -1 7.20000 142.200 2 4 293
1925105N07142 1925 17 WP MM NOT_NAMED 1925-04-15 00:00:00 NR 7.25374 142.071 main 1087 1078 __________P___ -1 7.25374 142.071 2 4 293
1925105N07142 1925 17 WP MM NOT_NAMED 1925-04-15 03:00:00 NR 7.33917 141.876 main 1078 1078 __________P___ -1 7.33917 141.876 2 4 295
1925105N07142 1925 17 WP MM NOT_NAMED 1925-04-15 06:00:00 NR 7.43707 141.677 main 1080 1080 __________P___ -1 7.43707 141.677 2 5 298
1925105N07142 1925 17 WP MM NOT_NAMED 1925-04-15 09:00:00 NR 7.55496 141.471 main 1094 1090 __________P___ -1 7.55496 141.471 2 5 301
1925105N07142 1925 17 WP MM NOT_NAMED 1925-04-15 10:00:00 NR 7.60000 141.400 main 1090 1086 __________O___ -1 7.60000 141.400 2 5 304
1925105N07142 1925 17 WP MM NOT_NAMED 1925-04-15 12:00:00 NR 7.69999 141.256 main 1097 1094 __________P___ -1 7.69999 141.256 2 5 307
1925105N07142 1925 17 WP MM NOT_NAMED 1925-04-15 15:00:00 NR 7.87499 141.033 main 1109 1109 __________P___ -1 7.87499 141.033 2 6 310
1925105N07142 1925 17 WP MM NOT_NAMED 1925-04-15 18:00:00 NR 8.07999 140.805 main 1124 1121 __________P___ -1 8.07999 140.805 2 6 314
1925105N07142 1925 17 WP MM NOT_NAMED 1925-04-15 21:00:00 NR 8.31499 140.576 main 1140 1140 __________P___ -1 8.31499 140.576 2 7 317
1925105N07142 1925 17 WP MM NOT_NAMED 1925-04-15 22:00:00 NR 8.40000 140.500 main 1149 1149 __________O___ -1 8.40000 140.500 2 7 321
1925105N07142 1925 17 WP MM NOT_NAMED 1925-04-16 00:00:00 NR 8.58761 140.353 main 1165 1160 __________P___ -1 8.58761 140.353 2 7 324
1925105N07142 1925 17 WP MM NOT_NAMED 1925-04-16 03:00:00 NR 8.89452 140.132 main 1182 1182 __________P___ -1 8.89452 140.132 2 8 325
1925105N07142 1925 17 WP MM NOT_NAMED 1925-04-16 06:00:00 NR 9.20980 139.908 main 1205 1205 __________P___ -1 9.20980 139.908 2 8 324
1925105N07142 1925 17 WP MM NOT_NAMED 1925-04-16 09:00:00 NR 9.50846 139.678 main 1228 1228 __________P___ -1 9.50846 139.678 2 7 322
1925105N07142 1925 17 WP MM NOT_NAMED 1925-04-16 10:00:00 NR 9.60000 139.600 main 1235 1231 __________O___ -1 9.60000 139.600 2 7 310
1925105N07142 1925 17 WP MM NOT_NAMED 1925-04-16 12:00:00 NR 9.71950 139.426 main 1238 1238 __________P___ -1 9.71950 139.426 2 6 302
1925105N07142 1925 17 WP MM NOT_NAMED 1925-04-16 15:00:00 NR 9.87270 139.158 main 1252 1246 __________P___ -1 9.87270 139.158 2 6 302
1925105N07142 1925 17 WP MM NOT_NAMED 1925-04-16 18:00:00 NR 10.0446 138.899 main 1253 1260 __________P___ -1 10.0446 138.899 2 6 311
1925105N07142 1925 17 WP MM NOT_NAMED 1925-04-16 21:00:00 NR 10.2914 138.668 main 1279 1276 __________P___ -1 10.2914 138.668 2 7 320
1925105N07142 1925 17 WP MM NOT_NAMED 1925-04-16 22:00:00 NR 10.4000 138.600 main 1287 1287 __________O___ -1 10.4000 138.600 2 9 336
1925105N07142 1925 17 WP MM NOT_NAMED 1925-04-17 00:00:00 NR 10.7076 138.486 main 1317 1317 __________P___ -1 10.7076 138.486 2 11 344
1925105N07142 1925 17 WP MM NOT_NAMED 1925-04-17 03:00:00 NR 11.2580 138.345 main 1344 1344 __________P___ -1 11.2580 138.345 2 12 348
1925105N07142 1925 17 WP MM NOT_NAMED 1925-04-17 06:00:00 NR 11.8538 138.232 main 1346 1346 __________P___ -1 11.8538 138.232 2 12 350
1925105N07142 1925 17 WP MM NOT_NAMED 1925-04-17 09:00:00 NR 12.4263 138.132 main 1348 1350 __________P___ -1 12.4263 138.132 2 11 350
1925105N07142 1925 17 WP MM NOT_NAMED 1925-04-17 10:00:00 NR 12.6000 138.100 main 1351 1343 __________O___ -1 12.6000 138.100 2 10 347
1925105N07142 1925 17 WP MM NOT_NAMED 1925-04-17 12:00:00 NR 12.8868 138.025 main 1344 1339 __________P___ -1 12.8868 138.025 2 8 345
1925105N07142 1925 17 WP MM NOT_NAMED 1925-04-17 15:00:00 NR 13.2668 137.919 main 1340 1334 __________P___ -1 13.2668 137.919 2 7 345
1925105N07142 1925 17 WP MM NOT_NAMED 1925-04-17 18:00:00 NR 13.6004 137.820 main 1336 1330 __________P___ -1 13.6004 137.820 2 7 344
1925105N07142 1925 17 WP MM NOT_NAMED 1925-04-17 21:00:00 NR 13.9032 137.729 main 1332 1332 __________P___ -1 13.9032 137.729 2 6 343
1925105N07142 1925 17 WP MM NOT_NAMED 1925-04-17 22:00:00 NR 14.0000 137.700 main 1335 1329 __________O___ -1 14.0000 137.700 7 6 344
1925105N07142 1925 17 WP MM NOT_NAMED 1925-04-18 00:00:00 NR 14.1952 137.642 main 1329 1329 __________P___ -1 14.1952 137.642 7 6 343
1925105N07142 1925 17 WP MM NOT_NAMED 1925-04-18 03:00:00 NR 14.4690 137.560 main 1334 1324 __________P___ -1 14.4690 137.560 7 6 345
1925105N07142 1925 17 WP MM NOT_NAMED 1925-04-18 06:00:00 NR 14.7338 137.487 main 1328 1321 __________P___ -1 14.7338 137.487 7 6 346
1925105N07142 1925 17 WP MM NOT_NAMED 1925-04-18 09:00:00 NR 15.0053 137.420 main 1324 1324 __________P___ -1 15.0053 137.420 7 6 347
1925105N07142 1925 17 WP MM NOT_NAMED 1925-04-18 10:00:00 NR 15.1000 137.400 main 1326 1326 __________O___ -1 15.1000 137.400 7 6 351
1925105N07142 1925 17 WP MM NOT_NAMED 1925-04-18 12:00:00 NR 15.2974 137.361 main 1331 1323 __________P___ -1 15.2974 137.361 7 6 351
1925105N07142 1925 17 WP MM NOT_NAMED 1925-04-18 15:00:00 NR 15.6059 137.309 main 1329 1329 __________P___ -1 15.6059 137.309 7 6 352
1925105N07142 1925 17 WP MM NOT_NAMED 1925-04-18 18:00:00 NR 15.9321 137.261 main 1338 1331 __________P___ -1 15.9321 137.261 7 7 352
1925105N07142 1925 17 WP MM NOT_NAMED 1925-04-18 21:00:00 NR 16.2792 137.215 main 1342 1342 __________P___ -1 16.2792 137.215 7 7 353
1925105N07142 1925 17 WP MM NOT_NAMED 1925-04-18 22:00:00 NR 16.4000 137.200 main 1345 1345 __________O___ -1 16.4000 137.200 7 8 351
1925105N07142 1925 17 WP MM NOT_NAMED 1925-04-19 00:00:00 NR 16.6522 137.159 main 1356 1346 __________P___ -1 16.6522 137.159 7 8 352
1925105N07142 1925 17 WP MM NOT_NAMED 1925-04-19 03:00:00 NR 17.0494 137.097 main 1358 1363 __________P___ -1 17.0494 137.097 7 8 352
1925105N07142 1925 17 WP MM NOT_NAMED 1925-04-19 06:00:00 NR 17.4583 137.043 main 1370 1370 __________P___ -1 17.4583 137.043 7 8 354
1925105N07142 1925 17 WP MM NOT_NAMED 1925-04-19 09:00:00 NR 17.8663 137.007 main 1389 1389 __________P___ -1 17.8663 137.007 7 8 357
1925105N07142 1925 17 WP MM NOT_NAMED 1925-04-19 10:00:00 NR 18.0000 137.000 main 1394 1394 __________O___ -1 18.0000 137.000 7 8 357
1925105N07142 1925 17 WP MM NOT_NAMED 1925-04-19 12:00:00 NR 18.2636 136.994 main 1409 1409 __________P___ -1 18.2636 136.994 7 8 0
1925105N07142 1925 17 WP MM NOT_NAMED 1925-04-19 15:00:00 NR 18.6528 137.004 main 1430 1430 __________P___ -1 18.6528 137.004 7 8 2
1925105N07142 1925 17 WP MM NOT_NAMED 1925-04-19 18:00:00 NR 19.0291 137.035 main 1447 1446 __________P___ -1 19.0291 137.035 7 7 6
1925105N07142 1925 17 WP MM NOT_NAMED 1925-04-19 21:00:00 NR 19.3863 137.081 main 1446 1435 __________P___ -1 19.3863 137.081 7 7 7
1925105N07142 1925 17 WP MM NOT_NAMED 1925-04-19 22:00:00 NR 19.5000 137.100 main 1435 1415 __________O___ -1 19.5000 137.100 7 7 9
1925105N07142 1925 17 WP MM NOT_NAMED 1925-04-20 00:00:00 NR 19.7250 137.133 main 1415 1390 __________P___ -1 19.7250 137.133 7 7 9
1925105N07142 1925 17 WP MM NOT_NAMED 1925-04-20 03:00:00 NR 20.0437 137.196 main 1390 1365 __________P___ -1 20.0437 137.196 7 6 12
1925105N07142 1925 17 WP MM NOT_NAMED 1925-04-20 06:00:00 NR 20.3399 137.273 main 1365 1335 __________P___ -1 20.3399 137.273 7 6 16
1925105N07142 1925 17 WP MM NOT_NAMED 1925-04-20 09:00:00 NR 20.6137 137.366 main 1340 1330 __________P___ -1 20.6137 137.366 7 6 18
1925105N07142 1925 17 WP MM NOT_NAMED 1925-04-20 10:00:00 NR 20.7000 137.400 main 1330 1316 __________O___ -1 20.7000 137.400 7 5 19
1925105N07142 1925 17 WP MM NOT_NAMED 1925-04-20 12:00:00 NR 20.8645 137.464 main 1316 1301 __________P___ -1 20.8645 137.464 7 5 22
1925105N07142 1925 17 WP MM NOT_NAMED 1925-04-20 15:00:00 NR 21.0922 137.573 main 1301 1288 __________P___ -1 21.0922 137.573 7 5 26
1925105N07142 1925 17 WP MM NOT_NAMED 1925-04-20 18:00:00 NR 21.3083 137.699 main 1288 1274 __________P___ -1 21.3083 137.699 7 5 30
1925105N07142 1925 17 WP MM NOT_NAMED 1925-04-20 21:00:00 NR 21.5253 137.846 main 1274 1270 __________P___ -1 21.5253 137.846 7 5 32
1925105N07142 1925 17 WP MM NOT_NAMED 1925-04-20 22:00:00 NR 21.6000 137.900 main 1270 1256 __________O___ -1 21.6000 137.900 7 6 33
1925105N07142 1925 17 WP MM NOT_NAMED 1925-04-21 00:00:00 NR 21.7662 138.014 main 1256 1241 __________P___ -1 21.7662 138.014 7 6 34
1925105N07142 1925 17 WP MM NOT_NAMED 1925-04-21 03:00:00 NR 22.0219 138.203 main 1247 1229 __________P___ -1 22.0219 138.203 7 6 36
1925105N07142 1925 17 WP MM NOT_NAMED 1925-04-21 06:00:00 NR 22.2770 138.409 main 1229 1222 __________P___ -1 22.2770 138.409 7 6 38
1925105N07142 1925 17 WP MM NOT_NAMED 1925-04-21 09:00:00 NR 22.5221 138.626 main 1222 1218 __________P___ -1 22.5221 138.626 7 6 40
1925105N07142 1925 17 WP MM NOT_NAMED 1925-04-21 10:00:00 NR 22.6000 138.700 main 1218 1215 __________O___ -1 22.6000 138.700 7 6 43
1925105N07142 1925 17 WP MM NOT_NAMED 1925-04-21 12:00:00 NR 22.7395 138.845 main 1215 1209 __________P___ -1 22.7395 138.845 7 6 45
1925105N07142 1925 17 WP MM NOT_NAMED 1925-04-21 15:00:00 NR 22.9360 139.068 main 1215 1196 __________P___ -1 22.9360 139.068 7 6 47
1925105N07142 1925 17 WP MM NOT_NAMED 1925-04-21 18:00:00 NR 23.1283 139.295 main 1199 1180 __________P___ -1 23.1283 139.295 7 6 47
1925105N07142 1925 17 WP MM NOT_NAMED 1925-04-21 21:00:00 NR 23.3291 139.524 main 1183 1173 __________P___ -1 23.3291 139.524 7 6 46
1925105N07142 1925 17 WP MM NOT_NAMED 1925-04-21 22:00:00 NR 23.4000 139.600 main 1176 1158 __________O___ -1 23.4000 139.600 7 6 41
1925105N07142 1925 17 WP MM NOT_NAMED 1925-04-22 00:00:00 NR 23.5630 139.747 main 1158 1143 __________P___ -1 23.5630 139.747 7 6 39
1925105N07142 1925 17 WP MM NOT_NAMED 1925-04-22 03:00:00 NR 23.8204 139.968 main 1146 1122 __________P___ -1 23.8204 139.968 7 7 38
1925105N07142 1925 17 WP MM NOT_NAMED 1925-04-22 06:00:00 NR 24.0793 140.192 main 1122 1109 __________P___ -1 24.0793 140.192 7 7 39
1925105N07142 1925 17 WP MM NOT_NAMED 1925-04-22 09:00:00 NR 24.3242 140.422 main 1109 1103 __________P___ -1 24.3242 140.422 7 6 41
1925105N07142 1925 17 WP MM NOT_NAMED 1925-04-22 10:00:00 NR 24.4000 140.500 main 1103 1097 __________O___ -1 24.4000 140.500 7 6 45
1925105N07142 1925 17 WP MM NOT_NAMED 1925-04-22 12:00:00 NR 24.5406 140.660 main 1101 1085 __________P___ -1 24.5406 140.660 7 6 48
1925105N07142 1925 17 WP MM NOT_NAMED 1925-04-22 15:00:00 NR 24.7279 140.906 main 1089 1078 __________P___ -1 24.7279 140.906 7 6 52
1925105N07142 1925 17 WP MM NOT_NAMED 1925-04-22 18:00:00 NR 24.8947 141.158 main 1083 1078 __________P___ -1 24.8947 141.158 7 6 55
1925105N07142 1925 17 WP MM NOT_NAMED 1925-04-22 21:00:00 NR 25.0496 141.414 main 1082 1073 __________P___ -1 25.0496 141.414 7 6 56
1925105N07142 1925 17 WP MM NOT_NAMED 1925-04-22 22:00:00 NR 25.1000 141.500 main 1078 __________O___ -1 25.1000 141.500 2 6 59

デジタル台風データ・検索

IBTrACS Databaseについて

本データベースは、米国NOAAが公開する1842年以降の世界の熱帯低気圧のベストトラックデータアーカイブInternational Best Track Archive for Climate Stewardship (IBTrACS)を、ウェブで閲覧しやすい形式に変換したものです。

最終更新日:2021-10-21